Time;durP1;ratioP1;P1;durP2;ratioP2;P2;SDS_P1;SDS_P2;PMS_P1;PMS_P2;Temp;Humidity;BMP_temperature;BMP_pressure;BME280_temperature;BME280_humidity;BME280_pressure;Samples;Min_cycle;Max_cycle;Signal;HPM_P1;HPM_P2
2022/09/24 00:01:29;;;;;;;6.53;4.87;;;;;;;12.10;73.23;99729.41;5113001;28;20305;-51
2022/09/24 00:03:59;;;;;;;5.03;4.73;;;;;;;12.02;73.66;99721.00;5112806;28;20195;-52
2022/09/24 00:06:27;;;;;;;5.57;5.20;;;;;;;12.00;73.96;99720.19;5112610;27;20202;-52
2022/09/24 00:08:56;;;;;;;5.43;5.03;;;;;;;11.93;74.40;99731.69;5113025;28;20198;-59
2022/09/24 00:11:24;;;;;;;5.43;5.03;;;;;;;11.93;74.75;99731.69;5112554;28;20622;-59
2022/09/24 00:13:52;;;;;;;5.93;5.43;;;;;;;11.90;74.70;99724.00;5112566;28;20230;-59
2022/09/24 00:16:20;;;;;;;6.27;5.50;;;;;;;11.89;74.92;99717.94;5111506;28;20203;-59
2022/09/24 00:18:49;;;;;;;5.73;5.20;;;;;;;11.87;74.76;99722.31;5112819;28;20198;-58
2022/09/24 00:21:18;;;;;;;5.87;5.37;;;;;;;11.85;75.28;99708.50;5113042;28;20201;-58
2022/09/24 00:23:48;;;;;;;5.33;4.93;;;;;;;11.75;75.17;99699.28;5112868;28;20671;-55
2022/09/24 00:29:00;;;;;;;8.23;5.20;;;;;;;11.63;75.43;99687.47;5112138;28;20693;-52
2022/09/24 00:31:28;;;;;;;5.93;5.33;;;;;;;11.71;75.83;99712.41;5112348;28;20289;-53
2022/09/24 00:33:58;;;;;;;5.77;5.37;;;;;;;11.63;75.83;99707.44;5112459;28;20230;-59
2022/09/24 00:36:26;;;;;;;5.67;5.27;;;;;;;11.63;76.11;99703.09;5112765;28;20190;-59
2022/09/24 00:38:55;;;;;;;5.37;4.97;;;;;;;11.52;75.90;99689.56;5112835;28;20676;-57
2022/09/24 00:41:25;;;;;;;5.67;5.17;;;;;;;11.63;76.79;99707.44;5112628;28;20291;-59
2022/09/24 00:43:52;;;;;;;5.30;5.00;;;;;;;11.61;76.25;99704.03;5112721;28;20590;-60
2022/09/24 00:46:24;;;;;;;5.50;4.93;;;;;;;11.65;76.51;99703.03;5112362;28;20199;-58
2022/09/24 00:48:54;;;;;;;5.93;5.57;;;;;;;11.66;75.86;99699.53;5112153;28;20207;-59
2022/09/24 00:51:26;;;;;;;6.30;5.70;;;;;;;11.57;75.99;99705.03;5111756;28;20206;-53
2022/09/24 00:53:57;;;;;;;5.30;4.83;;;;;;;11.54;76.56;99698.16;5111741;28;20199;-53
2022/09/24 00:56:24;;;;;;;5.60;5.20;;;;;;;11.57;75.91;99702.44;5111883;28;20293;-53
2022/09/24 00:58:55;;;;;;;5.80;5.30;;;;;;;11.56;76.04;99704.16;5111581;28;20207;-52
2022/09/24 01:01:24;;;;;;;5.47;5.07;;;;;;;11.53;76.16;99701.66;5111394;28;20202;-53
2022/09/24 01:03:55;;;;;;;6.23;5.73;;;;;;;11.37;77.34;99699.56;5111629;28;20201;-58
2022/09/24 01:06:24;;;;;;;5.50;5.00;;;;;;;11.31;77.70;99692.78;5111823;28;20565;-58
2022/09/24 01:08:51;;;;;;;5.50;5.20;;;;;;;11.27;78.30;99693.78;5111723;28;20230;-58
2022/09/24 01:11:38;;;;;;;6.80;5.43;;;;;;;11.27;79.02;99704.19;5111457;28;20671;-52
2022/09/24 01:14:43;;;;;;;5.73;5.33;;;;;;;11.14;79.81;99695.88;5111176;28;20194;-57
2022/09/24 01:17:22;;;;;;;5.67;5.27;;;;;;;11.17;79.92;99710.53;5089737;28;20698;-51
2022/09/24 01:20:34;;;;;;;5.80;5.40;;;;;;;11.13;80.86;99711.50;5111185;28;20198;-51
2022/09/24 01:23:34;;;;;;;5.27;4.97;;;;;;;11.04;81.50;99699.63;5091206;28;20312;-53
2022/09/24 01:26:18;;;;;;;5.40;4.90;;;;;;;11.03;81.91;99710.06;5111863;28;20224;-52
2022/09/24 01:29:04;;;;;;;5.87;5.10;;;;;;;10.95;82.78;99706.84;5110849;28;20277;-52
2022/09/24 01:31:36;;;;;;;5.33;4.93;;;;;;;10.94;83.01;99718.97;5111554;28;20277;-57
2022/09/24 01:34:06;;;;;;;5.50;5.10;;;;;;;10.81;84.12;99687.28;5111260;28;20794;-58
2022/09/24 01:36:35;;;;;;;8.87;5.47;;;;;;;10.94;83.59;99708.56;5111582;28;20205;-58
2022/09/24 01:39:03;;;;;;;5.80;5.17;;;;;;;10.94;83.49;99710.31;5111535;28;20651;-57
2022/09/24 01:41:32;;;;;;;5.70;5.30;;;;;;;10.93;83.94;99711.22;5111720;28;20285;-57
2022/09/24 01:44:00;;;;;;;5.50;5.10;;;;;;;10.94;83.98;99715.50;5111565;28;20197;-58
2022/09/24 01:46:28;;;;;;;5.77;5.07;;;;;;;10.83;84.87;99724.44;5110737;28;20225;-53
2022/09/24 01:48:57;;;;;;;6.80;5.60;;;;;;;10.81;85.65;99721.03;5110583;28;20579;-52
2022/09/24 01:51:28;;;;;;;6.83;5.60;;;;;;;10.86;84.46;99726.94;5110463;28;20199;-51
2022/09/24 01:54:02;;;;;;;5.50;4.60;;;;;;;10.79;83.73;99715.03;5110691;28;20659;-54
2022/09/24 01:56:35;;;;;;;5.67;5.17;;;;;;;10.74;83.33;99713.41;5110982;28;20194;-58
2022/09/24 01:59:05;;;;;;;6.07;5.17;;;;;;;10.72;82.57;99703.06;5111426;28;20202;-58
2022/09/24 02:01:38;;;;;;;5.10;4.80;;;;;;;10.84;82.09;99722.66;5110573;28;20627;-53
2022/09/24 02:04:12;;;;;;;5.23;4.90;;;;;;;10.79;82.13;99733.19;5110386;28;20230;-51
2022/09/24 02:06:47;;;;;;;5.63;5.23;;;;;;;10.74;82.15;99724.66;5110637;28;20654;-58
2022/09/24 02:09:32;;;;;;;6.07;5.30;;;;;;;10.68;82.23;99724.84;5110221;28;20564;-58
2022/09/24 02:12:03;;;;;;;6.03;5.63;;;;;;;10.69;83.11;99728.28;5110425;28;20580;-58
2022/09/24 02:14:33;;;;;;;5.77;5.37;;;;;;;10.63;83.06;99718.91;5110135;28;20197;-51
2022/09/24 02:17:02;;;;;;;6.03;5.50;;;;;;;10.69;83.45;99730.88;5110399;28;20222;-59
2022/09/24 02:19:35;;;;;;;7.10;5.23;;;;;;;10.68;83.62;99734.38;5109910;28;20277;-58
2022/09/24 02:22:06;;;;;;;6.10;5.60;;;;;;;10.63;84.79;99731.88;5110107;28;20313;-57
2022/09/24 02:24:40;;;;;;;5.67;5.27;;;;;;;10.67;84.71;99732.66;5110267;28;20571;-51
2022/09/24 02:27:07;;;;;;;5.80;5.37;;;;;;;10.44;84.63;99695.16;5110181;28;20652;-51
2022/09/24 02:29:34;;;;;;;6.23;5.63;;;;;;;10.62;84.85;99739.69;5110436;28;20662;-58
2022/09/24 02:32:03;;;;;;;6.27;5.67;;;;;;;10.61;85.20;99741.44;5109948;28;20198;-51
2022/09/24 02:34:35;;;;;;;7.17;5.50;;;;;;;10.56;85.16;99743.31;5109868;28;20785;-57
2022/09/24 02:37:05;;;;;;;6.00;5.40;;;;;;;10.61;84.92;99733.66;5109926;28;20621;-58
2022/09/24 02:39:32;;;;;;;5.43;5.03;;;;;;;10.65;84.89;99740.47;5109884;28;20194;-58
2022/09/24 02:42:01;;;;;;;5.60;5.20;;;;;;;10.68;84.85;99739.56;5110024;28;20205;-57
2022/09/24 02:44:29;;;;;;;5.77;5.27;;;;;;;10.71;84.07;99735.16;5110338;28;20279;-59
2022/09/24 02:46:57;;;;;;;5.23;4.83;;;;;;;10.70;82.87;99738.63;5110248;28;20270;-58
2022/09/24 02:49:24;;;;;;;5.97;5.50;;;;;;;10.60;82.25;99718.16;5110194;28;20296;-59
2022/09/24 02:51:52;;;;;;;6.67;5.87;;;;;;;10.70;81.78;99735.19;5110184;28;20224;-59
2022/09/24 02:54:19;;;;;;;5.40;5.00;;;;;;;10.72;80.95;99747.22;5110575;28;20190;-58
2022/09/24 02:56:46;;;;;;;6.10;5.20;;;;;;;10.69;81.37;99739.53;5110542;28;20984;-58
2022/09/24 02:59:14;;;;;;;5.60;5.07;;;;;;;10.63;81.62;99744.84;5109897;28;20286;-58
2022/09/24 03:01:41;;;;;;;6.50;5.90;;;;;;;10.54;82.24;99751.13;5110211;28;20194;-51
2022/09/24 03:04:08;;;;;;;5.60;5.10;;;;;;;10.61;82.05;99753.59;5109604;28;20305;-52
2022/09/24 03:06:35;;;;;;;6.67;5.10;;;;;;;10.63;82.47;99755.22;5109540;28;20201;-52
2022/09/24 03:09:04;;;;;;;5.80;5.30;;;;;;;10.64;82.15;99769.91;5109618;28;20198;-51
2022/09/24 03:11:32;;;;;;;7.40;5.57;;;;;;;10.63;82.66;99768.22;5109602;28;20201;-51
2022/09/24 03:13:59;;;;;;;5.70;5.17;;;;;;;10.60;82.67;99770.06;5109345;28;20193;-52
2022/09/24 03:16:26;;;;;;;6.03;5.63;;;;;;;10.46;84.06;99768.66;5110092;28;20710;-58
2022/09/24 03:18:53;;;;;;;6.30;5.70;;;;;;;10.47;83.07;99769.50;5110418;28;20701;-58
2022/09/24 03:21:22;;;;;;;6.30;5.70;;;;;;;10.39;82.81;99766.22;5110160;28;20203;-57
2022/09/24 03:23:49;;;;;;;5.40;5.00;;;;;;;10.22;83.15;99770.97;5110532;28;20678;-58
2022/09/24 03:26:17;;;;;;;5.90;5.00;;;;;;;10.19;83.89;99777.91;5110531;28;20201;-57
2022/09/24 03:28:45;;;;;;;5.73;5.33;;;;;;;10.12;85.12;99778.94;5110086;28;20268;-58
2022/09/24 03:31:11;;;;;;;5.57;5.17;;;;;;;10.08;85.54;99769.50;5112655;28;20205;-58
2022/09/24 03:33:40;;;;;;;5.77;5.37;;;;;;;10.24;84.52;99779.56;5114385;28;20714;-57
2022/09/24 03:36:09;;;;;;;6.07;5.40;;;;;;;10.24;84.98;99774.38;5114152;28;20262;-58
2022/09/24 03:38:37;;;;;;;5.50;5.00;;;;;;;10.16;85.46;99771.91;5113746;28;20234;-57
2022/09/24 03:41:06;;;;;;;4.97;4.40;;;;;;;10.15;85.79;99778.88;5113791;28;20204;-58
2022/09/24 03:43:35;;;;;;;5.70;5.20;;;;;;;10.15;85.61;99778.88;5113784;28;20215;-59
2022/09/24 03:46:02;;;;;;;5.60;4.90;;;;;;;10.25;85.18;99776.09;5113592;28;20199;-59
2022/09/24 03:48:29;;;;;;;5.57;4.93;;;;;;;10.26;84.49;99786.44;5114100;28;20206;-58
2022/09/24 03:50:56;;;;;;;5.37;4.87;;;;;;;10.26;85.07;99788.19;5113918;28;20211;-58
2022/09/24 03:53:23;;;;;;;5.43;4.93;;;;;;;10.28;84.47;99796.75;5110414;28;20215;-58
2022/09/24 03:55:55;;;;;;;5.50;5.13;;;;;;;10.25;84.26;99802.88;5112534;27;20322;-52
2022/09/24 03:58:22;;;;;;;5.20;4.80;;;;;;;10.36;83.85;99807.81;5113042;28;20237;-57
2022/09/24 04:00:51;;;;;;;5.77;5.37;;;;;;;10.30;84.33;99810.53;5112956;28;20597;-51
2022/09/24 04:03:18;;;;;;;5.13;4.73;;;;;;;10.23;85.87;99816.78;5113030;28;20321;-57
2022/09/24 04:05:45;;;;;;;4.90;4.60;;;;;;;10.18;84.59;99791.78;5112189;28;20304;-51
2022/09/24 04:08:12;;;;;;;5.40;5.00;;;;;;;10.27;85.26;99813.22;5113125;28;20710;-52
2022/09/24 04:10:39;;;;;;;4.90;4.60;;;;;;;10.27;85.72;99824.44;5111937;27;20230;-53
2022/09/24 04:13:06;;;;;;;5.10;4.70;;;;;;;10.25;85.84;99826.22;5111951;28;20223;-53
2022/09/24 04:15:33;;;;;;;5.93;5.13;;;;;;;10.33;85.17;99820.84;5112587;27;20222;-56
2022/09/24 04:18:01;;;;;;;9.13;4.90;;;;;;;10.38;85.59;99824.22;5113190;28;20218;-57
2022/09/24 04:20:29;;;;;;;5.33;4.93;;;;;;;10.40;85.26;99831.06;5112887;27;20313;-56
2022/09/24 04:22:58;;;;;;;5.13;4.77;;;;;;;10.42;85.66;99831.03;5113058;28;20231;-58
2022/09/24 04:25:29;;;;;;;5.30;4.90;;;;;;;10.44;85.27;99831.84;5111086;28;20287;-52
2022/09/24 04:27:58;;;;;;;5.00;4.60;;;;;;;10.48;85.52;99833.50;5111350;27;20720;-58
2022/09/24 04:30:26;;;;;;;5.23;4.83;;;;;;;10.43;85.31;99830.13;5112959;28;20305;-58
2022/09/24 04:32:53;;;;;;;5.30;5.00;;;;;;;10.49;85.68;99836.06;5112490;28;20226;-58
2022/09/24 04:35:23;;;;;;;5.50;5.07;;;;;;;10.52;84.45;99835.09;5111780;28;20690;-57
2022/09/24 04:37:50;;;;;;;5.63;5.13;;;;;;;10.66;84.61;99838.22;5111747;28;20219;-56
2022/09/24 04:40:18;;;;;;;7.03;5.33;;;;;;;10.69;83.60;99832.97;5111724;28;20717;-53
2022/09/24 04:42:46;;;;;;;5.13;4.77;;;;;;;10.79;82.86;99842.25;5110696;28;20232;-53
2022/09/24 04:45:15;;;;;;;6.17;5.17;;;;;;;10.87;82.44;99842.06;5111237;28;20218;-52
2022/09/24 04:47:42;;;;;;;5.70;5.30;;;;;;;10.98;81.90;99845.22;5111344;28;20694;-53
2022/09/24 04:50:11;;;;;;;5.43;4.90;;;;;;;11.12;80.86;99840.53;5111027;28;20317;-52
2022/09/24 04:52:39;;;;;;;5.10;4.70;;;;;;;11.24;80.08;99850.63;5111528;28;20594;-52
2022/09/24 04:55:07;;;;;;;5.07;4.70;;;;;;;11.32;79.09;99847.81;5111069;28;20879;-52
2022/09/24 04:57:35;;;;;;;4.93;4.53;;;;;;;11.37;78.36;99852.91;5111016;28;20229;-54
2022/09/24 05:00:04;;;;;;;4.87;4.57;;;;;;;11.44;77.88;99850.09;5110982;28;20223;-53
2022/09/24 05:02:31;;;;;;;6.63;4.70;;;;;;;11.50;75.98;99851.69;5110926;28;20225;-59
2022/09/24 05:04:57;;;;;;;5.20;4.70;;;;;;;11.64;74.30;99849.53;5110443;28;20605;-60
2022/09/24 05:07:24;;;;;;;4.90;4.60;;;;;;;11.70;73.03;99849.38;5110968;28;20694;-60
2022/09/24 05:09:53;;;;;;;5.50;4.70;;;;;;;11.79;72.39;99853.50;5111056;28;20226;-59
2022/09/24 05:12:20;;;;;;;4.70;4.40;;;;;;;12.07;70.70;99849.22;5110934;28;20210;-60
2022/09/24 05:14:47;;;;;;;6.13;4.30;;;;;;;13.21;66.60;99858.59;5110990;28;20675;-61
2022/09/24 05:17:14;;;;;;;5.97;4.17;;;;;;;15.10;59.76;99861.91;5110753;27;20280;-61
2022/09/24 05:19:41;;;;;;;4.80;4.17;;;;;;;17.10;52.87;99864.09;5109964;28;20230;-60
2022/09/24 05:22:08;;;;;;;5.03;4.30;;;;;;;18.93;47.28;99868.25;5110301;27;20222;-53
2022/09/24 05:24:35;;;;;;;4.23;3.93;;;;;;;20.27;42.97;99871.56;5110423;28;20318;-52
2022/09/24 05:27:09;;;;;;;5.03;3.90;;;;;;;21.21;40.64;99870.75;5110092;28;20639;-53
2022/09/24 05:29:37;;;;;;;3.92;3.63;;;;;;;22.37;38.27;99866.16;5110493;28;20230;-53
2022/09/24 05:32:06;;;;;;;4.40;4.20;;;;;;;23.57;35.68;99876.72;5110580;28;20225;-53
2022/09/24 05:34:33;;;;;;;4.38;3.92;;;;;;;24.13;34.67;99875.81;5109859;28;20234;-53
2022/09/24 05:37:00;;;;;;;4.85;4.43;;;;;;;24.64;33.63;99867.28;5110455;28;20595;-53
2022/09/24 05:39:27;;;;;;;4.25;3.80;;;;;;;25.45;32.30;99872.03;5110554;28;20230;-53
2022/09/24 05:41:55;;;;;;;6.32;4.72;;;;;;;26.17;31.32;99873.84;5110223;28;20279;-53
2022/09/24 05:44:23;;;;;;;5.00;4.50;;;;;;;26.01;30.92;99885.81;5109654;28;20254;-52
2022/09/24 05:46:51;;;;;;;4.38;4.07;;;;;;;25.79;31.23;99864.72;5109792;27;20399;-56
2022/09/24 05:49:19;;;;;;;5.30;4.60;;;;;;;26.10;31.30;99886.84;5109337;28;20222;-54
2022/09/24 05:51:48;;;;;;;4.38;4.07;;;;;;;26.91;30.10;99896.44;5110221;27;20287;-53
2022/09/24 05:54:15;;;;;;;4.90;4.57;;;;;;;27.10;29.85;99890.31;5109565;28;20226;-62
2022/09/24 05:56:42;;;;;;;5.18;4.65;;;;;;;27.35;29.62;99863.09;5109711;28;20223;-59
2022/09/24 05:59:09;;;;;;;4.65;4.20;;;;;;;28.24;27.97;99894.75;5108626;28;20293;-62
2022/09/24 06:01:37;;;;;;;4.60;4.20;;;;;;;28.56;27.76;99903.13;5108319;28;20225;-61
2022/09/24 06:04:04;;;;;;;4.25;3.95;;;;;;;29.23;27.34;99896.53;5104879;28;20218;-52
2022/09/24 06:06:31;;;;;;;4.00;3.67;;;;;;;29.70;26.02;99898.88;5108435;28;20323;-62
2022/09/24 06:08:58;;;;;;;5.95;4.15;;;;;;;29.70;26.22;99905.09;5108303;27;20696;-63
2022/09/24 06:11:31;;;;;;;4.00;3.80;;;;;;;29.78;26.32;99902.47;5109812;28;20273;-62
2022/09/24 06:13:58;;;;;;;6.88;3.90;;;;;;;30.19;25.65;99905.41;5109440;27;20778;-63
2022/09/24 06:16:25;;;;;;;5.50;3.53;;;;;;;30.79;25.06;99906.16;5109538;28;20231;-64
2022/09/24 06:18:53;;;;;;;3.90;3.70;;;;;;;30.33;25.49;99907.47;5108875;27;20240;-59
2022/09/24 06:21:20;;;;;;;3.92;3.70;;;;;;;30.75;24.87;99902.13;5109594;28;20218;-61
2022/09/24 06:23:48;;;;;;;4.80;3.78;;;;;;;31.09;24.83;99898.50;5107486;27;20442;-60
2022/09/24 06:26:15;;;;;;;4.10;3.72;;;;;;;31.91;23.64;99905.53;5108698;28;20222;-62
2022/09/24 06:28:42;;;;;;;3.85;3.53;;;;;;;32.84;22.51;99903.84;5108323;28;20347;-62
2022/09/24 06:31:11;;;;;;;3.25;3.15;;;;;;;32.89;22.23;99906.81;5107951;28;20245;-64
2022/09/24 06:33:39;;;;;;;3.17;2.90;;;;;;;33.28;21.64;99912.13;5105608;27;20230;-60
2022/09/24 06:36:08;;;;;;;3.10;2.90;;;;;;;33.74;21.41;99912.03;5107665;28;20306;-62
2022/09/24 06:38:35;;;;;;;3.47;3.17;;;;;;;33.69;21.29;99914.44;5107995;28;20601;-63
2022/09/24 06:41:05;;;;;;;3.28;3.08;;;;;;;33.37;21.38;99915.56;5107526;28;20324;-61
2022/09/24 06:43:34;;;;;;;3.42;3.22;;;;;;;33.64;21.07;99917.66;5106355;27;20267;-63
2022/09/24 06:46:02;;;;;;;3.10;3.00;;;;;;;33.72;21.23;99914.06;5105970;28;20222;-61
2022/09/24 06:48:29;;;;;;;3.22;3.03;;;;;;;33.85;20.88;99917.84;5104848;27;20345;-62
2022/09/24 06:50:56;;;;;;;2.95;2.75;;;;;;;33.61;20.89;99923.44;5102238;28;20226;-61
2022/09/24 06:53:25;;;;;;;2.92;2.78;;;;;;;33.58;20.94;99915.72;5107147;28;20297;-56
2022/09/24 06:55:53;;;;;;;2.92;2.72;;;;;;;33.76;20.29;99921.63;5108216;28;20229;-56
2022/09/24 06:58:20;;;;;;;4.60;2.88;;;;;;;34.94;19.44;99933.19;5109225;28;20710;-57
2022/09/24 07:00:53;;;;;;;2.88;2.75;;;;;;;34.85;19.38;99926.25;5108394;28;20217;-57
2022/09/24 07:03:20;;;;;;;4.55;2.58;;;;;;;35.62;18.88;99931.78;5107280;28;20221;-56
2022/09/24 07:05:47;;;;;;;4.60;2.60;;;;;;;36.50;18.37;99926.75;5110491;28;20612;-57
2022/09/24 07:08:14;;;;;;;2.60;2.50;;;;;;;36.69;18.25;99921.44;5110917;28;20214;-57
2022/09/24 07:10:47;;;;;;;2.80;2.70;;;;;;;36.86;17.73;99929.19;5112608;28;20317;-57
2022/09/24 07:13:15;;;;;;;3.70;2.28;;;;;;;37.07;17.73;99926.31;5112634;27;20233;-59
2022/09/24 07:15:42;;;;;;;3.13;2.80;;;;;;;37.63;17.60;99924.13;5112916;28;20236;-58
2022/09/24 07:18:10;;;;;;;3.80;2.50;;;;;;;38.01;16.81;99934.28;5112577;27;20236;-58
2022/09/24 07:20:36;;;;;;;2.65;2.22;;;;;;;38.36;16.66;99930.25;5112985;28;20308;-65
2022/09/24 07:23:04;;;;;;;3.08;2.63;;;;;;;38.92;16.22;99934.19;5112549;27;20222;-56
2022/09/24 07:25:31;;;;;;;2.60;2.50;;;;;;;39.53;16.05;99946.13;5111533;28;20240;-65
2022/09/24 07:28:03;;;;;;;3.10;2.90;;;;;;;38.12;16.31;99930.97;5110980;27;20217;-64
2022/09/24 07:30:30;;;;;;;3.45;2.85;;;;;;;37.46;17.13;99935.56;5112031;28;20224;-64
2022/09/24 07:32:57;;;;;;;6.80;2.90;;;;;;;35.38;18.48;99929.50;5111764;28;20226;-64
2022/09/24 07:35:25;;;;;;;3.70;3.15;;;;;;;35.37;18.69;99905.41;5111413;28;20222;-60
2022/09/24 07:37:59;;;;;;;3.60;2.67;;;;;;;35.75;18.59;99920.28;5112597;28;20240;-60
2022/09/24 07:40:27;;;;;;;2.35;2.25;;;;;;;35.74;18.47;99910.50;5112350;28;20569;-60
2022/09/24 07:42:54;;;;;;;2.65;2.45;;;;;;;35.49;18.59;99920.88;5112486;28;20218;-60
2022/09/24 07:45:23;;;;;;;2.60;2.50;;;;;;;34.20;19.96;99910.06;5112548;28;20247;-55
2022/09/24 07:47:57;;;;;;;5.90;2.72;;;;;;;32.80;20.81;99897.13;5111961;28;20218;-60
2022/09/24 07:50:25;;;;;;;3.78;2.83;;;;;;;31.38;21.63;99896.16;5112211;28;20669;-60
2022/09/24 07:52:51;;;;;;;2.80;2.70;;;;;;;30.65;22.50;99906.78;5112239;28;20229;-55
2022/09/24 07:55:18;;;;;;;3.35;3.10;;;;;;;29.43;23.78;99887.34;5112397;28;20301;-55
2022/09/24 07:57:49;;;;;;;3.03;2.78;;;;;;;27.95;25.63;99887.69;5112288;28;20253;-55
2022/09/24 08:00:17;;;;;;;3.10;2.90;;;;;;;27.00;26.37;99889.47;5112310;28;20241;-60
2022/09/24 08:02:46;;;;;;;3.20;3.10;;;;;;;25.95;27.79;99890.84;5111420;28;20598;-62
2022/09/24 08:05:14;;;;;;;5.00;4.10;;;;;;;25.39;28.95;99890.34;5112094;28;20627;-63
2022/09/24 08:07:41;;;;;;;3.80;3.40;;;;;;;24.74;29.94;99885.97;5112286;28;20226;-63
2022/09/24 08:10:08;;;;;;;4.90;4.50;;;;;;;23.97;30.57;99879.75;5112058;28;20229;-62
2022/09/24 08:12:35;;;;;;;3.67;3.30;;;;;;;23.46;30.85;99874.88;5112165;28;20249;-58
2022/09/24 08:15:02;;;;;;;3.92;3.53;;;;;;;22.93;31.63;99882.38;5111957;28;20222;-55
2022/09/24 08:17:29;;;;;;;3.17;2.80;;;;;;;22.41;32.18;99880.84;5110699;28;20221;-56
2022/09/24 08:19:57;;;;;;;3.22;2.85;;;;;;;21.95;33.43;99871.81;5111549;27;20225;-62
2022/09/24 08:22:25;;;;;;;3.75;3.55;;;;;;;21.66;34.55;99861.47;5111673;28;20221;-61
2022/09/24 08:24:52;;;;;;;4.50;3.90;;;;;;;21.52;33.58;99863.38;5111664;28;20238;-54
2022/09/24 08:27:20;;;;;;;5.38;3.60;;;;;;;21.15;37.37;99864.97;5111566;28;20310;-54
2022/09/24 08:29:47;;;;;;;6.15;3.78;;;;;;;21.28;42.18;99852.69;5118900;27;20229;-61
2022/09/24 08:32:14;;;;;;;3.75;3.45;;;;;;;21.08;34.37;99856.63;5110088;28;20276;-61
2022/09/24 08:34:41;;;;;;;4.82;4.18;;;;;;;20.99;35.86;99855.41;5110926;28;20265;-54
2022/09/24 08:37:21;;;;;;;4.10;3.75;;;;;;;20.70;34.32;99848.59;5111021;28;20643;-54
2022/09/24 08:39:48;;;;;;;4.15;2.90;;;;;;;20.66;34.64;99862.91;5110219;28;20281;-54
2022/09/24 08:42:25;;;;;;;6.18;3.50;;;;;;;20.73;34.51;99845.75;5111012;28;20202;-54
2022/09/24 08:47:47;;;;;;;3.55;3.13;;;;;;;20.93;33.89;99855.00;5111152;28;20197;-62
2022/09/24 08:50:17;;;;;;;4.15;2.97;;;;;;;20.91;34.01;99831.34;5111056;28;20243;-62
2022/09/24 08:52:59;;;;;;;3.05;2.85;;;;;;;20.71;33.77;99845.00;5111324;28;20511;-62
2022/09/24 08:55:32;;;;;;;2.65;2.55;;;;;;;20.77;33.91;99849.03;5111877;28;20197;-55
2022/09/24 08:58:11;;;;;;;2.65;2.55;;;;;;;20.73;33.76;99843.13;5111775;28;20241;-55
2022/09/24 09:00:44;;;;;;;2.85;2.65;;;;;;;20.77;33.50;99844.59;5111704;28;20216;-54
2022/09/24 09:03:24;;;;;;;2.78;2.58;;;;;;;20.80;32.75;99841.75;5111448;28;20205;-61
2022/09/24 09:05:56;;;;;;;4.32;3.25;;;;;;;20.83;35.24;99838.06;5111359;28;20218;-61
2022/09/24 09:08:34;;;;;;;3.13;2.92;;;;;;;20.74;32.24;99842.19;5111666;28;20194;-61
2022/09/24 09:11:03;;;;;;;2.70;2.60;;;;;;;20.90;32.28;99847.28;5111443;28;20721;-60
2022/09/24 09:13:36;;;;;;;3.30;3.15;;;;;;;20.91;32.04;99838.41;5111184;28;20205;-62
2022/09/24 09:16:07;;;;;;;3.33;3.03;;;;;;;20.91;32.01;99836.63;5111217;28;20191;-60
2022/09/24 09:18:40;;;;;;;2.45;2.25;;;;;;;20.75;31.70;99825.41;5111337;28;20230;-62
2022/09/24 09:21:15;;;;;;;3.42;3.10;;;;;;;20.85;31.87;99831.75;5110997;28;20206;-54
2022/09/24 09:23:48;;;;;;;2.70;2.60;;;;;;;20.91;31.31;99825.22;5110816;28;20198;-54
2022/09/24 09:26:17;;;;;;;2.60;2.50;;;;;;;20.85;31.28;99797.47;5111203;28;20624;-61
2022/09/24 09:28:45;;;;;;;2.63;2.42;;;;;;;20.97;31.21;99815.13;5110184;28;20682;-61
2022/09/24 09:31:23;;;;;;;1.88;1.70;;;;;;;21.02;30.46;99812.16;5110899;28;20194;-61
2022/09/24 09:34:07;;;;;;;2.20;2.00;;;;;;;20.84;29.64;99814.22;5110883;28;20240;-60
2022/09/24 09:36:45;;;;;;;2.65;2.30;;;;;;;21.00;32.35;99819.31;5111260;28;20686;-61
2022/09/24 09:39:29;;;;;;;2.85;2.65;;;;;;;21.07;31.76;99817.13;5110650;28;20208;-54
2022/09/24 09:42:04;;;;;;;2.58;2.47;;;;;;;20.88;31.60;99788.50;5111039;28;20668;-55
2022/09/24 09:44:37;;;;;;;2.45;2.35;;;;;;;21.12;31.88;99812.38;5110588;28;20608;-55
2022/09/24 09:47:16;;;;;;;2.85;2.13;;;;;;;21.12;31.66;99807.94;5110880;28;20199;-55
2022/09/24 09:49:46;;;;;;;2.72;2.55;;;;;;;21.19;31.14;99792.59;5110511;28;20197;-54
2022/09/24 09:52:16;;;;;;;2.40;2.30;;;;;;;21.25;30.39;99808.00;5109049;28;20201;-53
2022/09/24 09:54:44;;;;;;;2.60;2.40;;;;;;;21.29;30.73;99806.84;5110430;28;20194;-55
2022/09/24 09:57:15;;;;;;;2.40;2.30;;;;;;;21.34;29.91;99807.34;5110333;28;20854;-55
2022/09/24 09:59:47;;;;;;;2.80;2.05;;;;;;;21.37;29.80;99805.34;5109561;28;20499;-55
2022/09/24 10:02:24;;;;;;;2.35;1.90;;;;;;;21.31;29.71;99807.59;5105610;28;20209;-55
2022/09/24 10:04:54;;;;;;;1.90;1.80;;;;;;;21.30;29.08;99798.81;5108317;28;20218;-55
2022/09/24 10:07:22;;;;;;;2.22;2.13;;;;;;;21.25;29.23;99792.16;5107760;28;20210;-54
2022/09/24 10:10:00;;;;;;;2.25;2.15;;;;;;;21.13;29.23;99788.50;5110093;28;20606;-54
2022/09/24 10:12:28;;;;;;;2.17;2.08;;;;;;;21.18;29.53;99785.56;5109677;28;20206;-55
2022/09/24 10:15:00;;;;;;;2.10;2.00;;;;;;;21.26;29.65;99783.28;5109636;28;20193;-55
2022/09/24 10:17:31;;;;;;;4.25;2.33;;;;;;;21.24;29.24;99772.81;5110355;28;20588;-55
2022/09/24 10:20:01;;;;;;;2.00;1.90;;;;;;;21.44;28.34;99784.66;5110119;28;20201;-55
2022/09/24 10:22:29;;;;;;;2.40;2.30;;;;;;;21.47;28.71;99786.22;5110303;28;20192;-55
2022/09/24 10:25:00;;;;;;;2.55;2.28;;;;;;;21.45;29.21;99785.50;5110199;28;20241;-55
2022/09/24 10:27:32;;;;;;;1.98;1.88;;;;;;;21.41;29.21;99776.09;5110222;28;20203;-55
2022/09/24 10:32:47;;;;;;;2.30;2.20;;;;;;;21.47;29.31;99776.50;5110041;28;20189;-54
2022/09/24 10:35:25;;;;;;;2.20;2.10;;;;;;;21.48;29.41;99762.38;5109687;28;20226;-56
2022/09/24 10:37:53;;;;;;;2.15;2.05;;;;;;;21.39;28.85;99747.16;5108982;27;20191;-55
2022/09/24 10:40:26;;;;;;;1.90;1.80;;;;;;;21.42;28.82;99762.81;5108272;28;20262;-62
2022/09/24 10:43:01;;;;;;;2.17;2.08;;;;;;;21.43;29.04;99759.22;5109505;28;20627;-62
2022/09/24 10:45:49;;;;;;;2.15;2.05;;;;;;;21.22;29.23;99752.78;5109727;28;20698;-62
2022/09/24 10:48:23;;;;;;;2.40;2.30;;;;;;;21.18;29.29;99761.81;5106543;28;20302;-61
2022/09/24 10:50:57;;;;;;;2.35;2.25;;;;;;;21.12;29.31;99743.75;5109887;28;20641;-60
2022/09/24 10:53:38;;;;;;;2.55;2.35;;;;;;;21.27;29.78;99758.56;5108730;28;20198;-55
2022/09/24 10:56:17;;;;;;;2.88;2.67;;;;;;;21.23;29.50;99752.66;5107774;28;20231;-55
2022/09/24 10:59:12;;;;;;;3.58;2.40;;;;;;;21.10;29.12;99732.47;5109932;28;20581;-55
2022/09/24 11:01:45;;;;;;;2.35;2.25;;;;;;;21.19;29.61;99745.91;5109137;28;20286;-62
2022/09/24 11:04:26;;;;;;;2.20;2.10;;;;;;;21.16;29.28;99747.88;5109799;28;20281;-61
2022/09/24 11:07:41;;;;;;;2.42;2.20;;;;;;;21.16;29.58;99739.94;5109797;28;20194;-62
2022/09/24 11:10:21;;;;;;;2.58;2.47;;;;;;;21.23;29.74;99736.81;5103101;28;20195;-61
2022/09/24 11:13:02;;;;;;;2.35;2.25;;;;;;;21.18;29.99;99733.66;5106457;28;20190;-62
2022/09/24 11:15:45;;;;;;;2.22;2.13;;;;;;;21.13;29.38;99737.50;5106701;28;20281;-60
2022/09/24 11:18:27;;;;;;;3.28;2.50;;;;;;;21.13;29.25;99724.31;5106985;28;20205;-62
2022/09/24 11:21:04;;;;;;;3.22;2.13;;;;;;;21.18;29.44;99715.19;5106599;28;20191;-55
2022/09/24 11:23:46;;;;;;;2.70;2.60;;;;;;;21.29;29.51;99714.44;5105876;28;20195;-55
2022/09/24 11:26:26;;;;;;;2.30;2.20;;;;;;;21.40;29.17;99722.44;5106336;28;20331;-54
2022/09/24 11:29:21;;;;;;;2.40;2.30;;;;;;;21.36;29.53;99708.59;5105934;28;20269;-53
2022/09/24 11:32:05;;;;;;;2.60;2.30;;;;;;;21.43;29.70;99705.56;5107375;28;20198;-54
2022/09/24 11:34:51;;;;;;;2.80;2.70;;;;;;;21.50;29.84;99707.63;5105944;28;20222;-54
2022/09/24 11:37:30;;;;;;;2.70;2.55;;;;;;;21.61;29.41;99706.88;5106928;28;20197;-54
2022/09/24 11:40:14;;;;;;;3.40;3.20;;;;;;;21.59;29.22;99685.84;5107350;28;20592;-55
2022/09/24 11:42:52;;;;;;;3.53;2.38;;;;;;;21.61;29.32;99697.16;5107990;28;20657;-55
2022/09/24 11:45:52;;;;;;;2.60;2.40;;;;;;;21.63;29.19;99692.63;5107473;28;20246;-54
2022/09/24 11:48:43;;;;;;;2.55;2.38;;;;;;;21.60;29.12;99692.81;5107498;28;20195;-54
2022/09/24 11:51:23;;;;;;;3.17;2.40;;;;;;;21.61;29.07;99694.50;5106665;28;20199;-54
2022/09/24 11:53:57;;;;;;;2.03;1.92;;;;;;;21.61;28.58;99693.66;5109353;28;20282;-55
2022/09/24 11:56:30;;;;;;;2.78;2.50;;;;;;;21.58;28.74;99694.72;5112080;28;20663;-56
2022/09/24 11:59:02;;;;;;;6.28;2.15;;;;;;;21.47;28.75;99699.94;5111710;28;20198;-56
2022/09/24 12:01:34;;;;;;;2.33;2.22;;;;;;;21.47;28.65;99704.38;5110170;28;20191;-62